createdAt,value
2017-08-07T00:01:49.924Z,72.00
2017-08-07T00:05:07.714Z,72.10
2017-08-07T00:08:11.481Z,72.10
2017-08-07T00:11:17.167Z,73.40
2017-08-07T00:14:20.922Z,73.00
2017-08-07T00:17:27.367Z,72.50
2017-08-07T00:20:31.144Z,72.20
2017-08-07T00:23:36.820Z,71.80
2017-08-07T00:26:45.979Z,72.20
2017-08-07T00:29:50.651Z,72.60
2017-08-07T00:32:54.427Z,71.80
2017-08-07T00:35:59.092Z,72.40
2017-08-07T00:39:02.856Z,72.60
2017-08-07T00:42:08.953Z,73.00
2017-08-07T00:45:12.723Z,72.40
2017-08-07T00:48:26.534Z,72.30
2017-08-07T00:51:30.295Z,73.20
2017-08-07T00:54:36.646Z,72.90
2017-08-07T00:57:40.428Z,72.10
2017-08-07T01:00:46.434Z,73.00
2017-08-07T01:03:50.251Z,73.30
2017-08-07T01:06:54.978Z,73.30
2017-08-07T01:10:17.551Z,73.00
2017-08-07T01:13:21.242Z,72.70
2017-08-07T01:16:24.989Z,73.00
2017-08-07T01:19:29.745Z,73.40
2017-08-07T01:22:33.526Z,73.60
2017-08-07T01:25:38.195Z,73.20
2017-08-07T01:28:41.983Z,73.80
2017-08-07T01:35:29.725Z,73.40
2017-08-07T01:38:33.410Z,73.30
2017-08-07T01:41:44.786Z,73.50
2017-08-07T01:44:48.481Z,73.10
2017-08-07T01:47:53.297Z,73.40
2017-08-07T01:50:56.987Z,73.40
2017-08-07T01:54:00.812Z,73.30
2017-08-07T02:00:31.995Z,73.60
2017-08-07T02:03:42.052Z,73.60
2017-08-07T02:06:45.843Z,73.50
2017-08-07T02:09:49.524Z,73.80
2017-08-07T02:12:53.331Z,73.70
2017-08-07T02:15:58.069Z,73.60
2017-08-07T02:19:01.897Z,73.50
2017-08-07T02:25:38.164Z,73.90
2017-08-07T02:28:41.849Z,73.90
2017-08-07T02:31:47.629Z,73.90
2017-08-07T02:34:51.306Z,74.00
2017-08-07T02:37:56.048Z,73.80
2017-08-07T02:40:59.739Z,73.40
2017-08-07T02:44:07.205Z,73.20
2017-08-07T02:47:12.765Z,73.20
2017-08-07T02:50:19.119Z,73.00
2017-08-07T02:53:22.912Z,73.10
2017-08-07T02:56:27.701Z,72.50
2017-08-07T02:59:31.539Z,72.60
2017-08-07T03:02:35.331Z,72.70
2017-08-07T03:05:39.030Z,72.50
2017-08-07T03:08:47.653Z,72.70
2017-08-07T03:11:51.441Z,72.60
2017-08-07T03:15:00.744Z,72.10
2017-08-07T03:18:04.904Z,72.00
2017-08-07T03:21:08.599Z,72.00
2017-08-07T03:24:12.395Z,72.20
2017-08-07T03:27:17.027Z,72.10
2017-08-07T03:30:24.197Z,72.20
2017-08-07T03:33:29.873Z,71.90
2017-08-07T03:36:33.688Z,71.80
2017-08-07T03:39:37.782Z,72.10
2017-08-07T03:42:41.616Z,72.00
2017-08-07T03:45:45.307Z,71.30
2017-08-07T03:48:49.112Z,71.90
2017-08-07T03:55:29.816Z,72.60
2017-08-07T03:58:33.503Z,72.50
2017-08-07T04:01:37.322Z,72.20
2017-08-07T04:04:41.148Z,71.90
2017-08-07T04:07:44.838Z,72.10
2017-08-07T04:10:48.634Z,72.30
2017-08-07T04:13:58.882Z,72.00
2017-08-07T04:17:21.328Z,72.20
2017-08-07T04:20:28.719Z,72.40
2017-08-07T04:23:32.627Z,73.10
2017-08-07T04:26:37.358Z,72.10
2017-08-07T04:29:41.266Z,72.30
2017-08-07T04:32:49.176Z,73.00
2017-08-07T04:35:52.876Z,72.70
2017-08-07T04:39:00.882Z,72.50
2017-08-07T04:42:06.534Z,73.30
2017-08-07T04:45:10.442Z,72.60
2017-08-07T04:48:15.173Z,72.20
2017-08-07T04:51:19.188Z,71.80
2017-08-07T04:54:26.576Z,71.60
2017-08-07T04:57:30.588Z,71.70
2017-08-07T05:00:42.177Z,71.10
2017-08-07T05:03:46.087Z,71.10
2017-08-07T05:06:51.329Z,71.30
2017-08-07T05:09:55.033Z,70.60
2017-08-07T05:12:58.944Z,70.10
2017-08-07T05:16:02.752Z,69.70
2017-08-07T05:19:06.457Z,69.10
2017-08-07T05:22:30.744Z,68.90
2017-08-07T05:25:34.653Z,68.60
2017-08-07T05:28:40.406Z,68.70
2017-08-07T05:31:44.318Z,68.10
2017-08-07T05:34:54.167Z,68.30
2017-08-07T05:37:57.975Z,67.80
2017-08-07T05:41:03.829Z,67.00
2017-08-07T05:44:26.279Z,66.60
2017-08-07T05:47:30.081Z,66.70
2017-08-07T05:50:33.991Z,65.60
2017-08-07T05:53:44.148Z,64.70
2017-08-07T05:56:47.956Z,65.90
2017-08-07T05:59:52.786Z,65.40
2017-08-07T06:02:56.800Z,65.20
2017-08-07T06:06:04.395Z,64.10
2017-08-07T06:09:09.125Z,64.60
2017-08-07T06:12:14.980Z,64.10
2017-08-07T06:15:18.786Z,63.40
2017-08-07T06:18:23.517Z,63.50
2017-08-07T06:21:27.329Z,63.20
2017-08-07T06:24:33.181Z,62.40
2017-08-07T06:27:45.296Z,61.90
2017-08-07T06:30:49.090Z,61.00
2017-08-07T06:33:52.998Z,60.90
2017-08-07T06:36:56.806Z,60.00
2017-08-07T06:40:20.483Z,59.30
2017-08-07T06:43:24.186Z,58.90
2017-08-07T06:46:28.095Z,58.40
2017-08-07T06:49:39.377Z,58.50
2017-08-07T06:52:52.503Z,58.80
2017-08-07T06:55:56.311Z,58.60
2017-08-07T06:59:06.263Z,58.90
2017-08-07T07:02:12.017Z,58.20
2017-08-07T07:05:15.824Z,57.20
2017-08-07T07:08:21.476Z,57.10
2017-08-07T07:11:25.280Z,56.40
2017-08-07T07:14:30.938Z,56.80
2017-08-07T07:17:34.841Z,56.20
2017-08-07T07:20:51.041Z,56.40
2017-08-07T07:23:54.951Z,55.70
2017-08-07T07:26:58.656Z,54.70
2017-08-07T07:30:02.474Z,55.60
2017-08-07T07:33:07.193Z,55.00
2017-08-07T07:36:11.104Z,54.40
2017-08-07T07:39:19.826Z,54.50
2017-08-07T07:42:42.373Z,55.40
2017-08-07T07:45:48.333Z,53.60
2017-08-07T07:48:52.242Z,54.40
2017-08-07T07:51:57.890Z,53.80
2017-08-07T07:55:01.805Z,54.40
2017-08-07T07:58:05.713Z,51.70
2017-08-07T08:01:09.521Z,54.00
2017-08-07T08:04:15.581Z,51.10
2017-08-07T08:10:55.144Z,52.30
2017-08-07T08:13:59.057Z,54.10
2017-08-07T08:17:02.760Z,52.40
2017-08-07T08:20:06.668Z,51.80
2017-08-07T08:23:10.578Z,49.40
2017-08-07T08:26:16.435Z,51.40
2017-08-07T08:29:20.244Z,48.30
2017-08-07T08:32:24.254Z,47.10
2017-08-07T08:35:32.061Z,47.60
2017-08-07T08:38:36.069Z,47.10
2017-08-07T08:41:43.866Z,42.40
2017-08-07T08:44:47.778Z,43.10
2017-08-07T08:51:19.867Z,42.70
2017-08-07T08:54:23.673Z,43.50
2017-08-07T08:57:27.482Z,45.10
2017-08-07T09:00:37.847Z,44.80
2017-08-07T09:03:43.804Z,45.30
2017-08-07T09:06:47.916Z,44.00
2017-08-07T09:09:51.929Z,44.90
2017-08-07T09:12:55.838Z,44.40
2017-08-07T09:16:05.657Z,45.20
2017-08-07T09:19:09.701Z,45.70
2017-08-07T09:22:18.423Z,43.20
2017-08-07T09:25:22.333Z,43.90
2017-08-07T09:28:30.110Z,43.30
2017-08-07T09:31:33.942Z,41.20
2017-08-07T09:34:45.215Z,42.90
2017-08-07T09:37:49.134Z,41.80
2017-08-07T09:40:53.685Z,42.20
2017-08-07T09:43:58.813Z,38.70
2017-08-07T09:47:03.549Z,41.60
2017-08-07T09:50:08.324Z,43.10
2017-08-07T09:53:15.419Z,39.30
2017-08-07T09:56:20.389Z,39.90
2017-08-07T09:59:24.320Z,41.10
2017-08-07T10:02:28.416Z,39.40
2017-08-07T10:05:32.301Z,39.60
2017-08-07T10:08:35.720Z,41.30
2017-08-07T10:11:39.259Z,41.10
2017-08-07T10:14:43.061Z,37.60
2017-08-07T10:17:46.858Z,40.40
2017-08-07T10:20:50.550Z,41.70
2017-08-07T10:23:54.407Z,40.90
2017-08-07T10:26:57.848Z,41.60
2017-08-07T10:30:01.998Z,42.20
2017-08-07T10:33:06.015Z,40.60
2017-08-07T10:36:09.780Z,41.30
2017-08-07T10:39:13.479Z,41.40
2017-08-07T10:42:17.273Z,39.80
2017-08-07T10:45:28.474Z,41.30
2017-08-07T10:48:32.247Z,39.30
2017-08-07T10:51:36.024Z,41.10
2017-08-07T10:54:40.974Z,37.70
2017-08-07T10:57:44.771Z,37.90
2017-08-07T11:00:48.322Z,40.00
2017-08-07T11:03:52.264Z,40.20
2017-08-07T11:06:57.267Z,40.50
2017-08-07T11:10:01.069Z,38.70
2017-08-07T11:13:04.879Z,41.50
2017-08-07T11:16:08.568Z,37.50
2017-08-07T11:19:12.140Z,41.00
2017-08-07T11:22:15.559Z,38.20
2017-08-07T11:25:19.138Z,38.30
2017-08-07T11:28:24.256Z,39.90
2017-08-07T11:31:27.696Z,39.30
2017-08-07T11:34:31.542Z,36.80
2017-08-07T11:37:34.970Z,36.40
2017-08-07T11:40:38.647Z,35.40
2017-08-07T11:43:42.079Z,38.50
2017-08-07T11:46:45.615Z,36.50
2017-08-07T11:49:49.322Z,38.70
2017-08-07T11:52:52.874Z,39.50
2017-08-07T11:55:56.417Z,38.00
2017-08-07T11:58:59.849Z,36.40
2017-08-07T12:05:16.676Z,37.10
2017-08-07T12:08:20.099Z,39.10
2017-08-07T12:11:23.898Z,35.20
2017-08-07T12:14:27.320Z,34.90
2017-08-07T12:17:30.882Z,37.40
2017-08-07T12:20:34.326Z,38.80
2017-08-07T12:23:37.850Z,35.90
2017-08-07T12:26:42.482Z,35.50
2017-08-07T12:29:45.908Z,38.40
2017-08-07T12:32:49.688Z,38.30
2017-08-07T12:35:53.128Z,35.20
2017-08-07T12:39:00.242Z,38.00
2017-08-07T12:42:03.689Z,36.70
2017-08-07T12:45:07.168Z,38.50
2017-08-07T12:48:10.600Z,35.60
2017-08-07T12:51:14.120Z,34.60
2017-08-07T12:54:17.979Z,37.00
2017-08-07T12:57:21.546Z,38.20
2017-08-07T13:00:24.996Z,36.60
2017-08-07T13:03:28.516Z,38.20
2017-08-07T13:06:31.944Z,34.90
2017-08-07T13:09:35.490Z,35.70
2017-08-07T13:12:38.907Z,36.10
2017-08-07T13:15:42.419Z,35.30
2017-08-07T13:18:47.773Z,34.10
2017-08-07T13:21:51.276Z,37.10
2017-08-07T13:24:54.791Z,36.40
2017-08-07T13:27:58.342Z,34.80
2017-08-07T13:31:01.771Z,36.10
2017-08-07T13:34:05.286Z,33.70
2017-08-07T13:37:08.832Z,37.40
2017-08-07T13:40:12.257Z,36.60
2017-08-07T13:43:15.813Z,35.80
2017-08-07T13:46:19.245Z,37.30
2017-08-07T13:49:22.748Z,34.40
2017-08-07T13:52:26.446Z,36.70
2017-08-07T13:55:29.955Z,35.20
2017-08-07T13:58:33.391Z,35.00
2017-08-07T14:01:36.876Z,33.90
2017-08-07T14:04:40.306Z,33.10
2017-08-07T14:07:43.841Z,35.20
2017-08-07T14:10:47.344Z,33.60
2017-08-07T14:13:50.786Z,34.30
2017-08-07T14:16:54.339Z,33.70
2017-08-07T14:19:57.876Z,35.50
2017-08-07T14:23:01.425Z,33.90
2017-08-07T14:26:04.876Z,31.90
2017-08-07T14:29:08.525Z,35.80
2017-08-07T14:32:12.000Z,34.10
2017-08-07T14:35:15.508Z,36.60
2017-08-07T14:38:18.987Z,35.90
2017-08-07T14:41:22.544Z,36.90
2017-08-07T14:44:25.977Z,36.80
2017-08-07T14:47:30.551Z,34.90
2017-08-07T14:50:34.063Z,34.90
2017-08-07T14:53:38.587Z,33.30
2017-08-07T14:56:42.121Z,36.80
2017-08-07T14:59:45.658Z,34.40
2017-08-07T15:02:49.359Z,36.00
2017-08-07T15:05:52.824Z,33.30
2017-08-07T15:08:56.353Z,35.40
2017-08-07T15:11:59.927Z,34.50
2017-08-07T15:15:03.720Z,35.10
2017-08-07T15:18:07.287Z,35.80
2017-08-07T15:21:10.710Z,35.60
2017-08-07T15:24:14.393Z,34.60
2017-08-07T15:27:17.814Z,37.00
2017-08-07T15:30:21.382Z,37.60
2017-08-07T15:33:24.811Z,35.90
2017-08-07T15:36:28.373Z,37.90
2017-08-07T15:39:31.891Z,37.70
2017-08-07T15:42:35.394Z,37.10
2017-08-07T15:45:44.852Z,35.60
2017-08-07T15:48:48.351Z,34.30
2017-08-07T15:51:51.862Z,36.30
2017-08-07T15:54:55.376Z,35.20
2017-08-07T15:57:58.866Z,36.00
2017-08-07T16:01:02.455Z,35.30
2017-08-07T16:04:06.019Z,35.20
2017-08-07T16:07:10.606Z,35.80
2017-08-07T16:10:14.619Z,36.10
2017-08-07T16:13:18.222Z,37.30
2017-08-07T16:16:22.002Z,36.20
2017-08-07T16:19:25.447Z,36.40
2017-08-07T16:22:28.994Z,35.30
2017-08-07T16:25:33.125Z,36.30
2017-08-07T16:28:40.006Z,36.70
2017-08-07T16:31:43.504Z,36.00
2017-08-07T16:34:47.016Z,35.20
2017-08-07T16:37:50.494Z,35.80
2017-08-07T16:40:54.017Z,34.80
2017-08-07T16:43:57.604Z,36.30
2017-08-07T16:47:01.049Z,36.90
2017-08-07T16:50:04.678Z,37.80
2017-08-07T16:53:08.631Z,36.00
2017-08-07T16:56:12.171Z,36.40
2017-08-07T16:59:15.610Z,36.60
2017-08-07T17:02:19.154Z,36.20
2017-08-07T17:05:30.214Z,37.40
2017-08-07T17:08:33.771Z,37.80
2017-08-07T17:11:37.304Z,37.90
2017-08-07T17:14:49.115Z,37.80
2017-08-07T17:17:52.632Z,37.50
2017-08-07T17:20:56.498Z,37.70
2017-08-07T17:24:00.008Z,38.30
2017-08-07T17:27:09.694Z,37.60
2017-08-07T17:30:13.468Z,38.40
2017-08-07T17:33:23.075Z,38.20
2017-08-07T17:36:29.866Z,38.20
2017-08-07T17:39:35.677Z,38.30
2017-08-07T17:42:39.438Z,38.90
2017-08-07T17:45:43.122Z,38.90
2017-08-07T17:48:53.399Z,39.80
2017-08-07T17:51:57.098Z,39.50
2017-08-07T17:55:00.852Z,40.00
2017-08-07T17:58:23.656Z,39.70
2017-08-07T18:01:31.239Z,39.90
2017-08-07T18:04:35.003Z,40.00
2017-08-07T18:07:40.774Z,40.20
2017-08-07T18:10:44.461Z,40.50
2017-08-07T18:13:48.299Z,40.10
2017-08-07T18:16:52.017Z,40.00
2017-08-07T18:19:55.903Z,40.40
2017-08-07T18:22:59.575Z,41.00
2017-08-07T18:26:03.335Z,40.90
2017-08-07T18:29:07.109Z,41.00
2017-08-07T18:32:10.893Z,41.20
2017-08-07T18:35:14.587Z,41.20
2017-08-07T18:38:18.346Z,41.30
2017-08-07T18:41:22.279Z,41.50
2017-08-07T18:44:26.015Z,42.60
2017-08-07T18:47:29.702Z,43.30
2017-08-07T18:50:33.468Z,43.20
2017-08-07T18:53:37.532Z,43.80
2017-08-07T18:56:41.215Z,44.20
2017-08-07T18:59:44.993Z,45.20
2017-08-07T19:02:48.679Z,45.20
2017-08-07T19:05:52.425Z,46.60
2017-08-07T19:08:56.118Z,46.90
2017-08-07T19:11:59.895Z,47.50
2017-08-07T19:15:03.582Z,48.00
2017-08-07T19:18:07.322Z,48.40
2017-08-07T19:21:11.018Z,47.90
2017-08-07T19:24:15.022Z,48.70
2017-08-07T19:27:18.766Z,48.30
2017-08-07T19:30:22.467Z,48.80
2017-08-07T19:33:26.246Z,48.50
2017-08-07T19:36:29.985Z,49.20
2017-08-07T19:39:33.749Z,49.20
2017-08-07T19:42:37.483Z,49.30
2017-08-07T19:45:41.308Z,49.50
2017-08-07T19:48:44.998Z,49.80
2017-08-07T19:51:48.771Z,50.30
2017-08-07T19:54:52.464Z,50.40
2017-08-07T19:57:56.235Z,50.20
2017-08-07T20:00:59.915Z,49.90
2017-08-07T20:04:03.691Z,49.80
2017-08-07T20:07:10.447Z,49.60
2017-08-07T20:10:14.170Z,49.30
2017-08-07T20:13:17.918Z,49.30
2017-08-07T20:16:23.639Z,49.30
2017-08-07T20:19:27.385Z,49.00
2017-08-07T20:22:31.212Z,48.80
2017-08-07T20:25:34.904Z,48.80
2017-08-07T20:28:38.752Z,49.30
2017-08-07T20:31:43.426Z,49.30
2017-08-07T20:34:47.190Z,49.40
2017-08-07T20:37:50.864Z,48.90
2017-08-07T20:40:55.031Z,49.00
2017-08-07T20:43:58.747Z,49.30
2017-08-07T20:47:02.502Z,49.20
2017-08-07T20:50:07.375Z,49.70
2017-08-07T20:53:11.064Z,49.90
2017-08-07T20:56:14.870Z,49.90
2017-08-07T20:59:18.546Z,50.70
2017-08-07T21:02:22.294Z,50.80
2017-08-07T21:05:26.048Z,51.40
2017-08-07T21:08:30.124Z,51.70
2017-08-07T21:11:33.806Z,51.30
2017-08-07T21:14:37.559Z,51.80
2017-08-07T21:17:41.325Z,51.90
2017-08-07T21:20:45.091Z,52.00
2017-08-07T21:23:49.780Z,51.80
2017-08-07T21:40:53.635Z,52.70
2017-08-07T21:43:57.468Z,53.90
2017-08-07T21:47:01.145Z,54.20
2017-08-07T21:50:06.384Z,54.30
2017-08-07T22:03:37.501Z,55.40
2017-08-07T22:06:41.186Z,55.90
2017-08-07T22:09:45.017Z,55.90
2017-08-07T22:12:48.783Z,55.60
2017-08-07T22:15:52.954Z,56.20
2017-08-07T22:18:56.747Z,56.30
2017-08-07T22:22:00.787Z,55.40
2017-08-07T22:25:04.598Z,55.60
2017-08-07T22:28:08.403Z,55.30
2017-08-07T22:31:12.574Z,55.60
2017-08-07T22:34:16.326Z,56.80
2017-08-07T22:37:20.067Z,57.00
2017-08-07T22:40:23.894Z,57.80
2017-08-07T22:43:27.774Z,57.90
2017-08-07T22:46:31.651Z,57.40
2017-08-07T22:49:35.456Z,57.60
2017-08-07T22:52:39.265Z,57.30
2017-08-07T22:55:43.061Z,57.30
2017-08-07T22:58:47.161Z,57.00
2017-08-07T23:01:50.979Z,57.20
2017-08-07T23:04:54.834Z,56.60
2017-08-07T23:07:58.712Z,56.80
2017-08-07T23:11:02.527Z,56.50
2017-08-07T23:14:06.334Z,56.30
2017-08-07T23:17:10.131Z,56.40
2017-08-07T23:20:13.927Z,56.20
2017-08-07T23:23:17.723Z,56.50
2017-08-07T23:26:21.651Z,56.80
2017-08-07T23:29:25.446Z,56.10
2017-08-07T23:32:29.297Z,56.80
2017-08-07T23:35:32.975Z,57.20
2017-08-07T23:38:36.785Z,56.70
2017-08-07T23:41:40.575Z,57.00
2017-08-07T23:44:44.395Z,57.00
2017-08-07T23:47:48.250Z,57.40
2017-08-07T23:50:52.130Z,57.60
2017-08-07T23:53:56.215Z,57.50
2017-08-07T23:57:00.034Z,57.80
